sensor_id;sensor_type;location;lat;lon;timestamp;pressure;altitude;pressure_sealevel;temperature;humidity
61488;BME280;47351;53.326;-6.298;2022-10-03T00:02:29;102202.35;;;13.94;64.49
61488;BME280;47351;53.326;-6.298;2022-10-03T00:05:22;102204.02;;;13.93;64.32
61488;BME280;47351;53.326;-6.298;2022-10-03T00:08:46;102205.67;;;13.92;64.47
61488;BME280;47351;53.326;-6.298;2022-10-03T00:12:01;102204.54;;;13.93;64.30
61488;BME280;47351;53.326;-6.298;2022-10-03T00:14:46;102205.44;;;13.91;64.11
61488;BME280;47351;53.326;-6.298;2022-10-03T00:17:59;102216.52;;;13.91;64.35
61488;BME280;47351;53.326;-6.298;2022-10-03T00:21:15;102213.45;;;13.92;64.10
61488;BME280;47351;53.326;-6.298;2022-10-03T00:24:29;102209.21;;;13.91;64.11
61488;BME280;47351;53.326;-6.298;2022-10-03T00:27:40;102204.76;;;13.90;63.92
61488;BME280;47351;53.326;-6.298;2022-10-03T00:38:16;102207.02;;;13.91;63.92
61488;BME280;47351;53.326;-6.298;2022-10-03T00:41:32;102211.86;;;13.91;63.85
61488;BME280;47351;53.326;-6.298;2022-10-03T00:44:44;102214.90;;;13.91;63.78
61488;BME280;47351;53.326;-6.298;2022-10-03T00:48:05;102209.58;;;13.91;63.55
61488;BME280;47351;53.326;-6.298;2022-10-03T00:51:10;102206.20;;;13.90;63.46
61488;BME280;47351;53.326;-6.298;2022-10-03T00:54:31;102208.76;;;13.90;63.68
61488;BME280;47351;53.326;-6.298;2022-10-03T00:57:45;102211.46;;;13.90;63.49
61488;BME280;47351;53.326;-6.298;2022-10-03T01:00:48;102216.93;;;13.89;63.27
61488;BME280;47351;53.326;-6.298;2022-10-03T01:03:45;102215.23;;;13.88;63.54
61488;BME280;47351;53.326;-6.298;2022-10-03T01:06:34;102215.04;;;13.88;63.38
61488;BME280;47351;53.326;-6.298;2022-10-03T01:09:44;102213.30;;;13.88;63.45
61488;BME280;47351;53.326;-6.298;2022-10-03T01:12:47;102214.08;;;13.87;63.59
61488;BME280;47351;53.326;-6.298;2022-10-03T01:15:57;102203.77;;;13.86;63.54
61488;BME280;47351;53.326;-6.298;2022-10-03T01:18:51;102205.16;;;13.84;63.52
61488;BME280;47351;53.326;-6.298;2022-10-03T01:21:43;102203.70;;;13.83;63.50
61488;BME280;47351;53.326;-6.298;2022-10-03T01:27:42;102198.70;;;13.79;63.54
61488;BME280;47351;53.326;-6.298;2022-10-03T01:34:56;102208.33;;;13.72;63.77
61488;BME280;47351;53.326;-6.298;2022-10-03T01:37:50;102204.52;;;13.68;64.00
61488;BME280;47351;53.326;-6.298;2022-10-03T01:40:39;102207.05;;;13.68;64.06
61488;BME280;47351;53.326;-6.298;2022-10-03T01:43:44;102208.33;;;13.68;64.01
61488;BME280;47351;53.326;-6.298;2022-10-03T01:46:57;102207.95;;;13.68;64.29
61488;BME280;47351;53.326;-6.298;2022-10-03T01:49:57;102193.66;;;13.67;64.29
61488;BME280;47351;53.326;-6.298;2022-10-03T01:52:52;102189.17;;;13.67;64.20
61488;BME280;47351;53.326;-6.298;2022-10-03T01:55:57;102190.30;;;13.67;64.23
61488;BME280;47351;53.326;-6.298;2022-10-03T01:59:08;102192.19;;;13.66;64.28
61488;BME280;47351;53.326;-6.298;2022-10-03T02:02:04;102192.07;;;13.65;64.22
61488;BME280;47351;53.326;-6.298;2022-10-03T02:05:08;102195.16;;;13.64;64.50
61488;BME280;47351;53.326;-6.298;2022-10-03T02:08:22;102194.80;;;13.64;64.45
61488;BME280;47351;53.326;-6.298;2022-10-03T02:11:11;102192.27;;;13.63;64.39
61488;BME280;47351;53.326;-6.298;2022-10-03T02:14:23;102188.48;;;13.61;64.27
61488;BME280;47351;53.326;-6.298;2022-10-03T02:17:41;102185.80;;;13.59;64.46
61488;BME280;47351;53.326;-6.298;2022-10-03T02:20:35;102183.09;;;13.58;64.31
61488;BME280;47351;53.326;-6.298;2022-10-03T02:23:35;102181.42;;;13.56;64.34
61488;BME280;47351;53.326;-6.298;2022-10-03T02:30:04;102167.44;;;13.54;64.66
61488;BME280;47351;53.326;-6.298;2022-10-03T02:32:58;102168.10;;;13.53;64.63
61488;BME280;47351;53.326;-6.298;2022-10-03T02:36:19;102165.98;;;13.53;64.79
61488;BME280;47351;53.326;-6.298;2022-10-03T02:39:28;102163.18;;;13.52;64.76
61488;BME280;47351;53.326;-6.298;2022-10-03T02:49:58;102154.92;;;13.50;64.85
61488;BME280;47351;53.326;-6.298;2022-10-03T02:53:24;102159.48;;;13.49;64.79
61488;BME280;47351;53.326;-6.298;2022-10-03T03:10:00;102151.13;;;13.46;64.82
61488;BME280;47351;53.326;-6.298;2022-10-03T03:13:04;102142.49;;;13.42;64.71
61488;BME280;47351;53.326;-6.298;2022-10-03T03:16:07;102135.20;;;13.42;64.54
61488;BME280;47351;53.326;-6.298;2022-10-03T03:19:13;102128.58;;;13.42;64.31
61488;BME280;47351;53.326;-6.298;2022-10-03T03:25:54;102120.92;;;13.37;64.44
61488;BME280;47351;53.326;-6.298;2022-10-03T03:29:10;102121.23;;;13.34;64.63
61488;BME280;47351;53.326;-6.298;2022-10-03T03:32:16;102113.89;;;13.32;64.78
61488;BME280;47351;53.326;-6.298;2022-10-03T03:35:00;102109.64;;;13.29;64.98
61488;BME280;47351;53.326;-6.298;2022-10-03T03:38:17;102103.23;;;13.27;65.08
61488;BME280;47351;53.326;-6.298;2022-10-03T03:41:35;102094.19;;;13.24;64.99
61488;BME280;47351;53.326;-6.298;2022-10-03T03:44:43;102091.20;;;13.21;65.13
61488;BME280;47351;53.326;-6.298;2022-10-03T03:51:08;102079.04;;;13.17;65.43
61488;BME280;47351;53.326;-6.298;2022-10-03T03:54:05;102080.23;;;13.15;65.65
61488;BME280;47351;53.326;-6.298;2022-10-03T03:57:26;102076.46;;;13.14;65.72
61488;BME280;47351;53.326;-6.298;2022-10-03T04:00:44;102080.77;;;13.12;66.01
61488;BME280;47351;53.326;-6.298;2022-10-03T04:03:41;102077.85;;;13.09;66.22
61488;BME280;47351;53.326;-6.298;2022-10-03T04:06:38;102071.69;;;13.05;66.36
61488;BME280;47351;53.326;-6.298;2022-10-03T04:10:02;102073.63;;;13.02;66.42
61488;BME280;47351;53.326;-6.298;2022-10-03T04:13:18;102070.56;;;12.98;66.58
61488;BME280;47351;53.326;-6.298;2022-10-03T04:16:30;102063.19;;;12.94;66.72
61488;BME280;47351;53.326;-6.298;2022-10-03T04:20:11;102059.58;;;12.92;67.02
61488;BME280;47351;53.326;-6.298;2022-10-03T04:23:09;102052.60;;;12.88;66.98
61488;BME280;47351;53.326;-6.298;2022-10-03T04:30:08;102040.38;;;12.83;67.27
61488;BME280;47351;53.326;-6.298;2022-10-03T04:33:15;102039.32;;;12.79;67.32
61488;BME280;47351;53.326;-6.298;2022-10-03T04:39:03;102036.85;;;12.71;67.56
61488;BME280;47351;53.326;-6.298;2022-10-03T04:41:57;102034.87;;;12.67;67.84
61488;BME280;47351;53.326;-6.298;2022-10-03T04:45:12;102030.23;;;12.65;67.93
61488;BME280;47351;53.326;-6.298;2022-10-03T04:48:09;102026.94;;;12.64;68.08
61488;BME280;47351;53.326;-6.298;2022-10-03T04:51:06;102016.70;;;12.64;68.25
61488;BME280;47351;53.326;-6.298;2022-10-03T04:54:23;102018.48;;;12.64;68.27
61488;BME280;47351;53.326;-6.298;2022-10-03T04:57:35;102015.72;;;12.65;68.45
61488;BME280;47351;53.326;-6.298;2022-10-03T05:00:49;102019.62;;;12.67;68.61
61488;BME280;47351;53.326;-6.298;2022-10-03T05:04:02;102018.58;;;12.69;68.55
61488;BME280;47351;53.326;-6.298;2022-10-03T05:07:13;102015.55;;;12.70;68.59
61488;BME280;47351;53.326;-6.298;2022-10-03T05:10:19;102011.84;;;12.70;68.78
61488;BME280;47351;53.326;-6.298;2022-10-03T05:13:31;102007.98;;;12.71;68.75
61488;BME280;47351;53.326;-6.298;2022-10-03T05:16:33;102002.03;;;12.71;68.79
61488;BME280;47351;53.326;-6.298;2022-10-03T05:19:48;101986.41;;;12.72;68.74
61488;BME280;47351;53.326;-6.298;2022-10-03T05:23:05;101981.55;;;12.72;68.83
61488;BME280;47351;53.326;-6.298;2022-10-03T05:26:13;101994.79;;;12.72;68.77
61488;BME280;47351;53.326;-6.298;2022-10-03T05:29:42;101988.95;;;12.73;68.83
61488;BME280;47351;53.326;-6.298;2022-10-03T05:32:44;101986.27;;;12.75;68.70
61488;BME280;47351;53.326;-6.298;2022-10-03T05:35:53;101978.70;;;12.80;68.30
61488;BME280;47351;53.326;-6.298;2022-10-03T05:43:03;101981.58;;;12.87;67.93
61488;BME280;47351;53.326;-6.298;2022-10-03T05:46:01;101980.17;;;12.89;67.78
61488;BME280;47351;53.326;-6.298;2022-10-03T05:49:02;101978.52;;;12.89;67.84
61488;BME280;47351;53.326;-6.298;2022-10-03T05:52:17;101976.95;;;12.89;67.64
61488;BME280;47351;53.326;-6.298;2022-10-03T05:55:38;101977.73;;;12.88;67.68
61488;BME280;47351;53.326;-6.298;2022-10-03T06:02:28;101968.77;;;12.90;67.26
61488;BME280;47351;53.326;-6.298;2022-10-03T06:05:55;101969.83;;;12.92;67.03
61488;BME280;47351;53.326;-6.298;2022-10-03T06:08:50;101970.49;;;12.93;66.79
61488;BME280;47351;53.326;-6.298;2022-10-03T06:12:01;101966.88;;;12.93;66.62
61488;BME280;47351;53.326;-6.298;2022-10-03T06:15:24;101966.05;;;12.94;66.57
61488;BME280;47351;53.326;-6.298;2022-10-03T06:18:13;101966.70;;;12.95;66.63
61488;BME280;47351;53.326;-6.298;2022-10-03T06:24:41;101959.63;;;12.96;66.28
61488;BME280;47351;53.326;-6.298;2022-10-03T06:28:22;101963.91;;;13.00;66.19
61488;BME280;47351;53.326;-6.298;2022-10-03T06:31:36;101967.16;;;13.04;65.93
61488;BME280;47351;53.326;-6.298;2022-10-03T06:38:25;101980.65;;;13.11;65.58
61488;BME280;47351;53.326;-6.298;2022-10-03T06:45:13;101974.16;;;13.20;64.88
61488;BME280;47351;53.326;-6.298;2022-10-03T06:51:24;101969.73;;;13.32;64.34
61488;BME280;47351;53.326;-6.298;2022-10-03T06:54:46;101966.39;;;13.37;64.19
61488;BME280;47351;53.326;-6.298;2022-10-03T07:00:51;101965.55;;;13.41;64.13
61488;BME280;47351;53.326;-6.298;2022-10-03T07:04:30;101961.77;;;13.44;64.09
61488;BME280;47351;53.326;-6.298;2022-10-03T07:10:56;101965.63;;;13.49;64.33
61488;BME280;47351;53.326;-6.298;2022-10-03T07:14:23;101967.06;;;13.53;64.16
61488;BME280;47351;53.326;-6.298;2022-10-03T07:17:11;101974.01;;;13.57;64.25
61488;BME280;47351;53.326;-6.298;2022-10-03T07:20:34;101977.42;;;13.60;64.21
61488;BME280;47351;53.326;-6.298;2022-10-03T07:23:48;101972.48;;;13.61;64.35
61488;BME280;47351;53.326;-6.298;2022-10-03T07:27:08;101970.73;;;13.63;64.42
61488;BME280;47351;53.326;-6.298;2022-10-03T07:30:33;101971.71;;;13.65;64.48
61488;BME280;47351;53.326;-6.298;2022-10-03T07:41:12;101979.77;;;13.71;64.65
61488;BME280;47351;53.326;-6.298;2022-10-03T07:45:02;101981.77;;;13.73;64.53
61488;BME280;47351;53.326;-6.298;2022-10-03T07:59:50;101962.39;;;13.86;64.80
61488;BME280;47351;53.326;-6.298;2022-10-03T08:05:52;101959.89;;;13.87;64.88
61488;BME280;47351;53.326;-6.298;2022-10-03T08:13:12;101970.20;;;13.92;65.16
61488;BME280;47351;53.326;-6.298;2022-10-03T08:16:21;101971.52;;;13.94;65.29
61488;BME280;47351;53.326;-6.298;2022-10-03T08:22:41;101965.95;;;13.99;65.40
61488;BME280;47351;53.326;-6.298;2022-10-03T08:26:51;101960.27;;;14.06;65.38
61488;BME280;47351;53.326;-6.298;2022-10-03T08:37:33;101947.06;;;14.25;65.24
61488;BME280;47351;53.326;-6.298;2022-10-03T08:44:29;101938.11;;;14.35;65.08
61488;BME280;47351;53.326;-6.298;2022-10-03T08:56:52;101914.48;;;14.78;65.01
61488;BME280;47351;53.326;-6.298;2022-10-03T08:59:56;101916.24;;;14.89;64.85
61488;BME280;47351;53.326;-6.298;2022-10-03T09:08:58;101906.56;;;15.06;64.49
61488;BME280;47351;53.326;-6.298;2022-10-03T09:11:50;101902.80;;;15.08;64.42
61488;BME280;47351;53.326;-6.298;2022-10-03T09:18:12;101898.86;;;15.05;64.16
61488;BME280;47351;53.326;-6.298;2022-10-03T09:24:04;101892.42;;;15.00;64.48
61488;BME280;47351;53.326;-6.298;2022-10-03T09:27:16;101885.64;;;14.98;64.40
61488;BME280;47351;53.326;-6.298;2022-10-03T09:30:09;101879.95;;;14.97;64.63
61488;BME280;47351;53.326;-6.298;2022-10-03T09:36:12;101863.30;;;15.11;64.66
61488;BME280;47351;53.326;-6.298;2022-10-03T09:45:27;101846.75;;;15.40;63.93
61488;BME280;47351;53.326;-6.298;2022-10-03T09:50:47;101831.58;;;15.57;63.64
61488;BME280;47351;53.326;-6.298;2022-10-03T09:56:53;101832.11;;;15.72;63.60
61488;BME280;47351;53.326;-6.298;2022-10-03T10:02:53;101825.20;;;15.79;63.59
61488;BME280;47351;53.326;-6.298;2022-10-03T10:05:40;101819.98;;;15.75;63.68
61488;BME280;47351;53.326;-6.298;2022-10-03T10:11:03;101812.44;;;15.68;63.62
61488;BME280;47351;53.326;-6.298;2022-10-03T10:14:12;101816.28;;;15.64;63.74
61488;BME280;47351;53.326;-6.298;2022-10-03T10:19:36;101808.75;;;15.62;64.25
61488;BME280;47351;53.326;-6.298;2022-10-03T10:22:13;101806.02;;;15.62;64.27
61488;BME280;47351;53.326;-6.298;2022-10-03T10:25:21;101808.55;;;15.62;64.67
61488;BME280;47351;53.326;-6.298;2022-10-03T10:30:57;101808.33;;;15.67;64.76
61488;BME280;47351;53.326;-6.298;2022-10-03T10:34:08;101810.73;;;15.71;65.09
61488;BME280;47351;53.326;-6.298;2022-10-03T10:39:50;101796.34;;;15.72;65.05
61488;BME280;47351;53.326;-6.298;2022-10-03T10:42:37;101796.61;;;15.69;64.99
61488;BME280;47351;53.326;-6.298;2022-10-03T10:45:38;101793.66;;;15.73;64.70
61488;BME280;47351;53.326;-6.298;2022-10-03T10:55:14;101781.16;;;16.17;64.54
61488;BME280;47351;53.326;-6.298;2022-10-03T11:07:18;101762.32;;;17.08;62.53
61488;BME280;47351;53.326;-6.298;2022-10-03T11:10:17;101758.60;;;17.24;62.29
61488;BME280;47351;53.326;-6.298;2022-10-03T11:13:07;101752.90;;;17.26;61.87
61488;BME280;47351;53.326;-6.298;2022-10-03T11:24:07;101714.41;;;17.48;60.92
61488;BME280;47351;53.326;-6.298;2022-10-03T11:26:58;101710.45;;;17.70;60.32
61488;BME280;47351;53.326;-6.298;2022-10-03T11:32:49;101716.80;;;18.26;59.38
61488;BME280;47351;53.326;-6.298;2022-10-03T11:35:36;101714.23;;;18.41;58.82
61488;BME280;47351;53.326;-6.298;2022-10-03T11:38:10;101700.81;;;18.51;58.14
61488;BME280;47351;53.326;-6.298;2022-10-03T11:41:15;101692.15;;;18.55;58.05
61488;BME280;47351;53.326;-6.298;2022-10-03T11:44:17;101680.50;;;18.60;57.78
61488;BME280;47351;53.326;-6.298;2022-10-03T11:47:04;101678.64;;;18.67;57.58
61488;BME280;47351;53.326;-6.298;2022-10-03T11:52:37;101665.48;;;18.62;57.38
61488;BME280;47351;53.326;-6.298;2022-10-03T11:55:40;101661.31;;;18.58;57.44
61488;BME280;47351;53.326;-6.298;2022-10-03T11:58:32;101660.14;;;18.48;57.34
61488;BME280;47351;53.326;-6.298;2022-10-03T12:01:11;101662.20;;;18.46;57.24
61488;BME280;47351;53.326;-6.298;2022-10-03T12:03:49;101658.41;;;18.41;56.87
61488;BME280;47351;53.326;-6.298;2022-10-03T12:06:48;101654.89;;;18.39;56.95
61488;BME280;47351;53.326;-6.298;2022-10-03T12:09:47;101654.66;;;18.35;56.94
61488;BME280;47351;53.326;-6.298;2022-10-03T12:12:38;101647.14;;;18.31;56.86
61488;BME280;47351;53.326;-6.298;2022-10-03T12:15:52;101641.73;;;18.28;57.17
61488;BME280;47351;53.326;-6.298;2022-10-03T12:18:25;101641.95;;;18.28;57.41
61488;BME280;47351;53.326;-6.298;2022-10-03T12:21:16;101634.92;;;18.25;57.48
61488;BME280;47351;53.326;-6.298;2022-10-03T12:23:53;101639.43;;;18.20;57.53
61488;BME280;47351;53.326;-6.298;2022-10-03T12:26:26;101636.16;;;18.19;57.88
61488;BME280;47351;53.326;-6.298;2022-10-03T12:28:57;101632.88;;;18.19;57.83
61488;BME280;47351;53.326;-6.298;2022-10-03T12:31:28;101633.55;;;18.17;57.75
61488;BME280;47351;53.326;-6.298;2022-10-03T12:34:07;101630.67;;;18.12;58.08
61488;BME280;47351;53.326;-6.298;2022-10-03T12:36:51;101625.70;;;18.13;58.14
61488;BME280;47351;53.326;-6.298;2022-10-03T12:39:28;101624.84;;;18.23;58.12
61488;BME280;47351;53.326;-6.298;2022-10-03T12:42:16;101619.48;;;18.46;58.03
61488;BME280;47351;53.326;-6.298;2022-10-03T12:45:15;101622.17;;;18.65;57.66
61488;BME280;47351;53.326;-6.298;2022-10-03T12:47:53;101618.63;;;18.81;57.54
61488;BME280;47351;53.326;-6.298;2022-10-03T12:50:28;101613.70;;;18.99;56.90
61488;BME280;47351;53.326;-6.298;2022-10-03T12:53:03;101606.98;;;19.18;56.55
61488;BME280;47351;53.326;-6.298;2022-10-03T12:55:39;101610.92;;;19.37;56.09
61488;BME280;47351;53.326;-6.298;2022-10-03T12:58:12;101600.06;;;19.55;55.72
61488;BME280;47351;53.326;-6.298;2022-10-03T13:00:48;101598.50;;;19.81;55.50
61488;BME280;47351;53.326;-6.298;2022-10-03T13:03:49;101593.73;;;19.97;55.37
61488;BME280;47351;53.326;-6.298;2022-10-03T13:06:29;101587.52;;;19.87;54.62
61488;BME280;47351;53.326;-6.298;2022-10-03T13:09:26;101576.77;;;19.76;55.05
61488;BME280;47351;53.326;-6.298;2022-10-03T13:12:01;101568.25;;;19.83;54.88
61488;BME280;47351;53.326;-6.298;2022-10-03T13:15:30;101563.58;;;20.08;54.46
61488;BME280;47351;53.326;-6.298;2022-10-03T13:17:36;101558.90;;;20.86;53.81
61488;BME280;47351;53.326;-6.298;2022-10-03T13:20:12;101552.98;;;21.26;53.32
61488;BME280;47351;53.326;-6.298;2022-10-03T13:22:45;101552.52;;;21.18;52.65
61488;BME280;47351;53.326;-6.298;2022-10-03T13:25:18;101563.08;;;20.96;52.49
61488;BME280;47351;53.326;-6.298;2022-10-03T13:27:59;101553.45;;;20.81;52.88
61488;BME280;47351;53.326;-6.298;2022-10-03T13:30:30;101542.44;;;21.96;51.42
61488;BME280;47351;53.326;-6.298;2022-10-03T13:33:05;101536.09;;;23.12;50.22
61488;BME280;47351;53.326;-6.298;2022-10-03T13:35:37;101532.71;;;24.00;47.82
61488;BME280;47351;53.326;-6.298;2022-10-03T13:38:30;101518.98;;;25.37;45.94
61488;BME280;47351;53.326;-6.298;2022-10-03T13:41:07;101507.11;;;26.70;43.86
61488;BME280;47351;53.326;-6.298;2022-10-03T13:43:37;101504.14;;;27.70;42.77
61488;BME280;47351;53.326;-6.298;2022-10-03T13:46:09;101511.58;;;28.64;41.38
61488;BME280;47351;53.326;-6.298;2022-10-03T13:48:39;101502.16;;;28.14;40.94
61488;BME280;47351;53.326;-6.298;2022-10-03T13:51:12;101508.98;;;26.73;41.70
61488;BME280;47351;53.326;-6.298;2022-10-03T13:53:53;101506.44;;;25.35;42.85
61488;BME280;47351;53.326;-6.298;2022-10-03T13:56:42;101505.86;;;24.35;44.38
61488;BME280;47351;53.326;-6.298;2022-10-03T13:59:23;101501.19;;;24.61;44.21
61488;BME280;47351;53.326;-6.298;2022-10-03T14:01:58;101495.10;;;26.30;42.66
61488;BME280;47351;53.326;-6.298;2022-10-03T14:04:34;101492.21;;;27.80;41.00
61488;BME280;47351;53.326;-6.298;2022-10-03T14:07:08;101488.40;;;28.78;38.89
61488;BME280;47351;53.326;-6.298;2022-10-03T14:09:48;101481.69;;;29.15;38.23
61488;BME280;47351;53.326;-6.298;2022-10-03T14:12:27;101477.70;;;29.50;37.53
61488;BME280;47351;53.326;-6.298;2022-10-03T14:15:22;101472.13;;;29.73;37.06
61488;BME280;47351;53.326;-6.298;2022-10-03T14:17:57;101475.88;;;29.74;36.67
61488;BME280;47351;53.326;-6.298;2022-10-03T14:20:30;101474.19;;;29.15;36.74
61488;BME280;47351;53.326;-6.298;2022-10-03T14:23:09;101487.71;;;28.68;37.28
61488;BME280;47351;53.326;-6.298;2022-10-03T14:25:39;101483.98;;;28.69;37.94
61488;BME280;47351;53.326;-6.298;2022-10-03T14:28:11;101485.13;;;28.76;38.13
61488;BME280;47351;53.326;-6.298;2022-10-03T14:30:48;101482.09;;;28.86;38.11
61488;BME280;47351;53.326;-6.298;2022-10-03T14:33:34;101475.58;;;28.61;37.35
61488;BME280;47351;53.326;-6.298;2022-10-03T14:36:13;101474.43;;;28.38;37.49
61488;BME280;47351;53.326;-6.298;2022-10-03T14:38:53;101473.31;;;28.00;37.34
61488;BME280;47351;53.326;-6.298;2022-10-03T14:41:27;101467.21;;;27.54;38.39
61488;BME280;47351;53.326;-6.298;2022-10-03T14:44:02;101464.70;;;27.44;38.94
61488;BME280;47351;53.326;-6.298;2022-10-03T14:46:40;101461.66;;;27.36;39.20
61488;BME280;47351;53.326;-6.298;2022-10-03T14:49:12;101464.41;;;26.90;38.61
61488;BME280;47351;53.326;-6.298;2022-10-03T14:52:12;101463.57;;;26.03;39.76
61488;BME280;47351;53.326;-6.298;2022-10-03T14:54:44;101465.95;;;25.52;40.09
61488;BME280;47351;53.326;-6.298;2022-10-03T14:57:21;101459.25;;;25.06;41.19
61488;BME280;47351;53.326;-6.298;2022-10-03T14:59:51;101457.49;;;24.70;41.81
61488;BME280;47351;53.326;-6.298;2022-10-03T15:02:26;101450.77;;;24.40;42.59
61488;BME280;47351;53.326;-6.298;2022-10-03T15:04:54;101455.77;;;24.17;43.40
61488;BME280;47351;53.326;-6.298;2022-10-03T15:07:32;101450.50;;;23.90;43.72
61488;BME280;47351;53.326;-6.298;2022-10-03T15:10:03;101442.96;;;23.69;44.25
61488;BME280;47351;53.326;-6.298;2022-10-03T15:12:33;101453.88;;;23.53;45.03
61488;BME280;47351;53.326;-6.298;2022-10-03T15:15:05;101448.92;;;23.59;45.35
61488;BME280;47351;53.326;-6.298;2022-10-03T15:17:35;101449.83;;;23.46;45.61
61488;BME280;47351;53.326;-6.298;2022-10-03T15:20:04;101446.95;;;23.15;45.89
61488;BME280;47351;53.326;-6.298;2022-10-03T15:22:32;101443.75;;;22.88;46.56
61488;BME280;47351;53.326;-6.298;2022-10-03T15:25:04;101435.91;;;22.63;47.06
61488;BME280;47351;53.326;-6.298;2022-10-03T15:27:33;101440.66;;;22.15;47.64
61488;BME280;47351;53.326;-6.298;2022-10-03T15:30:02;101439.42;;;21.84;48.60
61488;BME280;47351;53.326;-6.298;2022-10-03T15:32:34;101426.09;;;21.55;49.43
61488;BME280;47351;53.326;-6.298;2022-10-03T15:35:03;101424.18;;;21.36;50.22
61488;BME280;47351;53.326;-6.298;2022-10-03T15:37:35;101420.22;;;21.17;50.70
61488;BME280;47351;53.326;-6.298;2022-10-03T15:40:20;101427.89;;;20.94;51.22
61488;BME280;47351;53.326;-6.298;2022-10-03T15:42:59;101433.04;;;20.78;51.81
61488;BME280;47351;53.326;-6.298;2022-10-03T15:45:29;101432.64;;;20.62;52.21
61488;BME280;47351;53.326;-6.298;2022-10-03T15:47:59;101433.60;;;20.41;52.70
61488;BME280;47351;53.326;-6.298;2022-10-03T15:50:28;101422.79;;;20.16;53.30
61488;BME280;47351;53.326;-6.298;2022-10-03T15:53:01;101422.10;;;19.91;53.88
61488;BME280;47351;53.326;-6.298;2022-10-03T15:55:55;101414.20;;;19.62;54.93
61488;BME280;47351;53.326;-6.298;2022-10-03T15:58:26;101409.52;;;19.32;55.52
61488;BME280;47351;53.326;-6.298;2022-10-03T16:03:44;101401.11;;;18.74;57.71
61488;BME280;47351;53.326;-6.298;2022-10-03T16:06:22;101401.14;;;18.53;58.53
61488;BME280;47351;53.326;-6.298;2022-10-03T16:08:57;101393.24;;;18.38;59.03
61488;BME280;47351;53.326;-6.298;2022-10-03T16:11:26;101398.43;;;18.24;59.64
61488;BME280;47351;53.326;-6.298;2022-10-03T16:14:14;101390.32;;;18.11;60.08
61488;BME280;47351;53.326;-6.298;2022-10-03T16:17:05;101385.41;;;18.01;60.50
61488;BME280;47351;53.326;-6.298;2022-10-03T16:19:41;101388.26;;;17.91;60.88
61488;BME280;47351;53.326;-6.298;2022-10-03T16:22:34;101381.82;;;17.84;61.64
61488;BME280;47351;53.326;-6.298;2022-10-03T16:25:05;101383.34;;;17.79;61.60
61488;BME280;47351;53.326;-6.298;2022-10-03T16:27:35;101382.31;;;17.72;62.06
61488;BME280;47351;53.326;-6.298;2022-10-03T16:30:14;101379.42;;;17.65;62.58
61488;BME280;47351;53.326;-6.298;2022-10-03T16:33:08;101379.10;;;17.55;62.86
61488;BME280;47351;53.326;-6.298;2022-10-03T16:36:09;101381.68;;;17.49;63.16
61488;BME280;47351;53.326;-6.298;2022-10-03T16:38:43;101370.96;;;17.45;63.27
61488;BME280;47351;53.326;-6.298;2022-10-03T16:41:14;101376.84;;;17.43;63.62
61488;BME280;47351;53.326;-6.298;2022-10-03T16:43:53;101382.92;;;17.41;63.76
61488;BME280;47351;53.326;-6.298;2022-10-03T16:46:33;101376.66;;;17.39;63.87
61488;BME280;47351;53.326;-6.298;2022-10-03T16:49:08;101374.16;;;17.35;63.98
61488;BME280;47351;53.326;-6.298;2022-10-03T16:52:09;101376.59;;;17.33;64.26
61488;BME280;47351;53.326;-6.298;2022-10-03T16:54:41;101375.29;;;17.28;64.82
61488;BME280;47351;53.326;-6.298;2022-10-03T16:57:11;101376.52;;;17.24;65.05
61488;BME280;47351;53.326;-6.298;2022-10-03T16:59:49;101364.39;;;17.20;65.02
61488;BME280;47351;53.326;-6.298;2022-10-03T17:02:27;101361.84;;;17.15;65.60
61488;BME280;47351;53.326;-6.298;2022-10-03T17:05:39;101355.25;;;17.10;65.68
61488;BME280;47351;53.326;-6.298;2022-10-03T17:08:10;101350.89;;;17.07;65.88
61488;BME280;47351;53.326;-6.298;2022-10-03T17:11:29;101354.42;;;17.04;66.15
61488;BME280;47351;53.326;-6.298;2022-10-03T17:14:16;101342.95;;;17.02;66.22
61488;BME280;47351;53.326;-6.298;2022-10-03T17:17:22;101342.52;;;17.02;66.42
61488;BME280;47351;53.326;-6.298;2022-10-03T17:20:36;101341.67;;;17.00;66.44
61488;BME280;47351;53.326;-6.298;2022-10-03T17:23:23;101333.83;;;16.96;66.60
61488;BME280;47351;53.326;-6.298;2022-10-03T17:26:34;101331.13;;;16.93;66.96
61488;BME280;47351;53.326;-6.298;2022-10-03T17:29:45;101321.86;;;16.89;67.11
61488;BME280;47351;53.326;-6.298;2022-10-03T17:32:50;101327.36;;;16.87;67.20
61488;BME280;47351;53.326;-6.298;2022-10-03T17:35:35;101322.55;;;16.85;67.10
61488;BME280;47351;53.326;-6.298;2022-10-03T17:38:25;101322.33;;;16.82;67.37
61488;BME280;47351;53.326;-6.298;2022-10-03T17:41:22;101317.00;;;16.79;67.39
61488;BME280;47351;53.326;-6.298;2022-10-03T17:44:17;101306.85;;;16.76;67.52
61488;BME280;47351;53.326;-6.298;2022-10-03T17:47:16;101304.88;;;16.74;67.63
61488;BME280;47351;53.326;-6.298;2022-10-03T17:49:50;101313.27;;;16.74;67.78
61488;BME280;47351;53.326;-6.298;2022-10-03T17:52:23;101319.78;;;16.70;68.02
61488;BME280;47351;53.326;-6.298;2022-10-03T17:55:15;101316.34;;;16.66;68.42
61488;BME280;47351;53.326;-6.298;2022-10-03T17:57:45;101312.26;;;16.62;68.57
61488;BME280;47351;53.326;-6.298;2022-10-03T18:00:54;101300.47;;;16.58;68.86
61488;BME280;47351;53.326;-6.298;2022-10-03T18:04:04;101297.16;;;16.55;68.98
61488;BME280;47351;53.326;-6.298;2022-10-03T18:07:14;101282.54;;;16.52;69.21
61488;BME280;47351;53.326;-6.298;2022-10-03T18:10:00;101272.66;;;16.50;69.18
61488;BME280;47351;53.326;-6.298;2022-10-03T18:13:01;101270.05;;;16.47;69.54
61488;BME280;47351;53.326;-6.298;2022-10-03T18:16:12;101271.15;;;16.46;69.58
61488;BME280;47351;53.326;-6.298;2022-10-03T18:19:09;101271.54;;;16.44;69.60
61488;BME280;47351;53.326;-6.298;2022-10-03T18:22:09;101272.97;;;16.43;69.59
61488;BME280;47351;53.326;-6.298;2022-10-03T18:25:14;101275.02;;;16.41;69.94
61488;BME280;47351;53.326;-6.298;2022-10-03T18:28:08;101268.30;;;16.40;70.15